createdAt,value
2022-10-13T00:04:04.030Z,8.00
2022-10-13T00:09:07.648Z,7.30
2022-10-13T00:14:11.235Z,8.07
2022-10-13T00:19:16.273Z,7.87
2022-10-13T00:24:19.883Z,11.67
2022-10-13T00:29:23.516Z,8.20
2022-10-13T00:34:28.545Z,11.50
2022-10-13T00:39:32.083Z,11.53
2022-10-13T00:45:01.864Z,6.50
2022-10-13T00:50:10.466Z,8.80
2022-10-13T00:55:18.165Z,7.50
2022-10-13T01:00:21.891Z,8.53
2022-10-13T01:05:27.198Z,9.43
2022-10-13T01:10:42.297Z,8.27
2022-10-13T01:15:51.845Z,8.47
2022-10-13T01:21:07.713Z,7.13
2022-10-13T01:26:26.093Z,8.90
2022-10-13T01:31:38.394Z,11.67
2022-10-13T01:36:48.553Z,10.37
2022-10-13T01:41:55.870Z,6.17
2022-10-13T01:47:02.674Z,6.50
2022-10-13T01:52:10.253Z,10.60
2022-10-13T01:57:32.026Z,10.83
2022-10-13T02:02:45.669Z,11.03
2022-10-13T02:07:55.883Z,8.83
2022-10-13T02:13:02.791Z,7.43
2022-10-13T02:18:10.095Z,8.50
2022-10-13T02:23:16.563Z,7.03
2022-10-13T02:28:20.844Z,6.43
2022-10-13T02:33:25.825Z,7.43
2022-10-13T02:38:29.270Z,9.30
2022-10-13T02:43:34.091Z,7.60
2022-10-13T02:48:39.128Z,8.50
2022-10-13T02:53:42.558Z,9.27
2022-10-13T02:58:46.140Z,7.00
2022-10-13T03:03:51.098Z,6.07
2022-10-13T03:08:54.822Z,8.20
2022-10-13T03:13:58.354Z,6.70
2022-10-13T03:19:03.246Z,8.43
2022-10-13T03:24:07.139Z,13.83
2022-10-13T03:29:15.097Z,6.90
2022-10-13T03:34:20.859Z,7.70
2022-10-13T03:39:24.333Z,5.57
2022-10-13T03:44:27.819Z,7.87
2022-10-13T03:49:32.740Z,8.83
2022-10-13T03:54:36.249Z,8.63
2022-10-13T03:59:41.112Z,9.13
2022-10-13T04:04:46.043Z,8.47
2022-10-13T04:09:49.464Z,11.47
2022-10-13T04:14:52.823Z,6.37
2022-10-13T04:19:57.682Z,9.33
2022-10-13T04:25:01.133Z,9.10
2022-10-13T04:30:05.354Z,6.97
2022-10-13T04:35:10.567Z,7.67
2022-10-13T04:40:14.386Z,8.33
2022-10-13T04:45:18.101Z,16.60
2022-10-13T04:50:23.091Z,7.07
2022-10-13T04:55:26.603Z,9.03
2022-10-13T05:00:30.152Z,7.17
2022-10-13T05:05:36.985Z,9.80
2022-10-13T05:10:40.394Z,7.70
2022-10-13T05:15:43.839Z,6.07
2022-10-13T05:20:48.747Z,8.67
2022-10-13T05:25:52.360Z,12.03
2022-10-13T05:30:55.789Z,6.37
2022-10-13T05:36:07.310Z,5.97
2022-10-13T05:41:14.110Z,6.70
2022-10-13T05:46:17.604Z,12.00
2022-10-13T05:51:25.726Z,6.83
2022-10-13T05:56:34.697Z,8.53
2022-10-13T06:01:40.332Z,7.73
2022-10-13T06:06:45.434Z,7.80
2022-10-13T06:11:50.391Z,8.60
2022-10-13T06:16:53.774Z,10.40
2022-10-13T06:22:03.255Z,6.90
2022-10-13T06:27:07.145Z,11.33
2022-10-13T06:32:10.557Z,7.30
2022-10-13T06:37:15.405Z,7.60
2022-10-13T06:42:19.090Z,8.60
2022-10-13T06:47:22.759Z,8.97
2022-10-13T06:52:27.749Z,8.60
2022-10-13T06:57:31.197Z,7.80
2022-10-13T07:02:34.937Z,9.27
2022-10-13T07:07:39.805Z,8.93
2022-10-13T07:12:43.214Z,9.43
2022-10-13T07:17:46.726Z,10.00
2022-10-13T07:22:51.789Z,7.40
2022-10-13T07:27:55.357Z,9.80
2022-10-13T07:33:00.274Z,9.10
2022-10-13T07:38:05.209Z,7.10
2022-10-13T07:43:08.659Z,12.93
2022-10-13T07:48:12.607Z,10.47
2022-10-13T07:53:17.712Z,13.33
2022-10-13T07:58:21.127Z,12.23
2022-10-13T08:03:24.549Z,11.00
2022-10-13T08:08:30.090Z,7.33
2022-10-13T08:13:34.038Z,10.90
2022-10-13T08:18:37.515Z,10.63
2022-10-13T08:23:42.380Z,9.73
2022-10-13T08:29:02.831Z,7.50
2022-10-13T08:34:09.891Z,9.67
2022-10-13T08:39:15.030Z,6.33
2022-10-13T08:49:48.326Z,7.70
2022-10-13T08:54:56.347Z,6.73
2022-10-13T08:59:59.798Z,5.17
2022-10-13T09:05:04.694Z,5.23
2022-10-13T09:10:11.611Z,5.17
2022-10-13T09:15:15.746Z,6.10
2022-10-13T09:20:23.163Z,6.43
2022-10-13T09:25:28.093Z,4.00
2022-10-13T09:30:35.220Z,5.50
2022-10-13T09:35:40.517Z,4.23
2022-10-13T09:40:57.508Z,6.07
2022-10-13T09:46:02.524Z,6.30
2022-10-13T09:51:06.154Z,7.87
2022-10-13T09:56:19.732Z,7.20
2022-10-13T10:01:29.394Z,7.77
2022-10-13T10:06:32.937Z,4.13
2022-10-13T16:33:11.358Z,6.10
2022-10-13T16:38:16.314Z,7.03
2022-10-13T16:43:19.674Z,6.13
2022-10-13T16:48:23.346Z,10.90
2022-10-13T16:53:28.251Z,7.63
2022-10-13T16:58:33.087Z,5.90
2022-10-13T17:03:36.772Z,8.50
2022-10-13T17:08:42.288Z,5.10
2022-10-13T17:13:45.912Z,8.40
2022-10-13T17:18:49.546Z,10.40
2022-10-13T17:23:57.224Z,10.43
2022-10-13T17:29:01.959Z,6.73
2022-10-13T17:34:06.731Z,8.47
2022-10-13T17:39:14.270Z,7.00
2022-10-13T17:44:21.451Z,10.17
2022-10-13T17:49:26.300Z,7.63
2022-10-13T17:54:32.660Z,8.73
2022-10-13T17:59:37.558Z,6.50
2022-10-13T18:04:42.033Z,8.67
2022-10-13T18:09:54.865Z,10.70
2022-10-13T18:14:59.345Z,10.90
2022-10-13T18:20:10.639Z,8.97
2022-10-13T18:25:19.707Z,7.17
2022-10-13T18:30:25.097Z,8.83
2022-10-13T18:35:32.330Z,10.23
2022-10-13T18:40:38.857Z,11.30
2022-10-13T18:45:45.449Z,9.67
2022-10-13T18:50:49.952Z,11.37
2022-10-13T18:56:04.378Z,9.20
2022-10-13T19:01:11.633Z,9.87
2022-10-13T19:06:18.020Z,8.47
2022-10-13T19:11:25.364Z,9.90
2022-10-13T19:16:32.193Z,11.67
2022-10-13T19:21:37.125Z,11.03
2022-10-13T19:27:04.835Z,16.30
2022-10-13T19:32:13.299Z,11.53
2022-10-13T19:37:21.613Z,3.97
2022-10-13T19:42:28.333Z,2.80
2022-10-13T19:47:36.771Z,2.57
2022-10-13T19:52:42.150Z,4.90
2022-10-13T19:57:48.688Z,3.83
2022-10-13T20:02:53.413Z,3.27
2022-10-13T20:08:00.567Z,4.13
2022-10-13T20:13:06.221Z,1.70
2022-10-13T20:18:10.413Z,3.33
2022-10-13T20:23:17.165Z,2.27
2022-10-13T20:28:22.631Z,3.37
2022-10-13T20:33:26.535Z,3.17
2022-10-13T20:38:31.406Z,2.77
2022-10-13T20:43:37.272Z,4.47
2022-10-13T20:49:09.453Z,4.20
2022-10-13T20:54:06.717Z,3.73
2022-10-13T20:59:14.804Z,4.00
2022-10-13T21:04:18.471Z,2.70
2022-10-13T21:09:22.393Z,3.57
2022-10-13T21:14:29.147Z,3.87
2022-10-13T21:19:37.749Z,4.03
2022-10-13T21:24:42.949Z,4.03
2022-10-13T21:29:50.027Z,3.17
2022-10-13T21:34:54.298Z,4.67
2022-10-13T21:39:57.769Z,2.40
2022-10-13T21:45:03.108Z,3.87
2022-10-13T21:50:07.367Z,2.37
2022-10-13T21:55:11.567Z,2.43
2022-10-13T22:00:24.780Z,1.70
2022-10-13T22:05:28.382Z,4.23
2022-10-13T22:10:31.907Z,3.30
2022-10-13T22:15:37.305Z,1.50
2022-10-13T22:20:40.837Z,3.33
2022-10-13T22:25:47.688Z,3.07
2022-10-13T22:36:23.809Z,1.47
2022-10-13T22:41:27.986Z,6.50
2022-10-13T22:46:34.990Z,4.23
2022-10-13T22:51:38.870Z,3.80
2022-10-13T22:56:43.340Z,4.27
2022-10-13T23:01:48.465Z,1.80
2022-10-13T23:06:51.980Z,5.17
2022-10-13T23:11:59.650Z,2.40
2022-10-13T23:17:04.948Z,3.80
2022-10-13T23:22:08.491Z,2.27
2022-10-13T23:27:12.022Z,1.67
2022-10-13T23:32:17.032Z,2.50
2022-10-13T23:37:20.785Z,3.53
2022-10-13T23:42:24.537Z,1.63
2022-10-13T23:47:29.485Z,2.10
2022-10-13T23:52:33.096Z,2.20
2022-10-13T23:57:36.610Z,2.33
